sensor_id;sensor_type;location;lat;lon;timestamp;P1;durP1;ratioP1;P2;durP2;ratioP2
10651;SDS011;5374;42.742;23.266;2024-02-21T00:00:05;8.67;;;7.10;;
10651;SDS011;5374;42.742;23.266;2024-02-21T00:02:53;8.40;;;7.40;;
10651;SDS011;5374;42.742;23.266;2024-02-21T00:05:40;7.90;;;6.37;;
10651;SDS011;5374;42.742;23.266;2024-02-21T00:08:27;7.57;;;6.77;;
10651;SDS011;5374;42.742;23.266;2024-02-21T00:11:14;7.97;;;7.17;;
10651;SDS011;5374;42.742;23.266;2024-02-21T00:14:01;7.47;;;6.73;;
10651;SDS011;5374;42.742;23.266;2024-02-21T00:16:50;6.57;;;5.67;;
10651;SDS011;5374;42.742;23.266;2024-02-21T00:19:37;7.57;;;6.77;;
10651;SDS011;5374;42.742;23.266;2024-02-21T00:22:24;7.33;;;6.63;;
10651;SDS011;5374;42.742;23.266;2024-02-21T00:25:14;8.43;;;6.87;;
10651;SDS011;5374;42.742;23.266;2024-02-21T00:28:01;7.40;;;6.30;;
10651;SDS011;5374;42.742;23.266;2024-02-21T00:30:48;6.87;;;6.10;;
10651;SDS011;5374;42.742;23.266;2024-02-21T00:33:39;6.50;;;5.80;;
10651;SDS011;5374;42.742;23.266;2024-02-21T00:36:27;7.13;;;6.10;;
10651;SDS011;5374;42.742;23.266;2024-02-21T00:39:14;7.43;;;6.60;;
10651;SDS011;5374;42.742;23.266;2024-02-21T00:42:01;9.00;;;7.07;;
10651;SDS011;5374;42.742;23.266;2024-02-21T00:44:48;7.40;;;6.30;;
10651;SDS011;5374;42.742;23.266;2024-02-21T00:47:35;7.30;;;6.60;;
10651;SDS011;5374;42.742;23.266;2024-02-21T00:50:23;7.67;;;6.33;;
10651;SDS011;5374;42.742;23.266;2024-02-21T00:53:11;7.83;;;6.93;;
10651;SDS011;5374;42.742;23.266;2024-02-21T00:55:58;8.37;;;6.30;;
10651;SDS011;5374;42.742;23.266;2024-02-21T00:58:45;7.07;;;5.77;;
10651;SDS011;5374;42.742;23.266;2024-02-21T01:01:32;7.43;;;6.53;;
10651;SDS011;5374;42.742;23.266;2024-02-21T01:04:19;6.20;;;5.60;;
10651;SDS011;5374;42.742;23.266;2024-02-21T01:07:07;7.20;;;6.27;;
10651;SDS011;5374;42.742;23.266;2024-02-21T01:09:55;6.97;;;6.13;;
10651;SDS011;5374;42.742;23.266;2024-02-21T01:12:42;7.73;;;6.57;;
10651;SDS011;5374;42.742;23.266;2024-02-21T01:15:29;9.83;;;7.50;;
10651;SDS011;5374;42.742;23.266;2024-02-21T01:18:16;8.47;;;7.30;;
10651;SDS011;5374;42.742;23.266;2024-02-21T01:21:03;8.37;;;7.47;;
10651;SDS011;5374;42.742;23.266;2024-02-21T01:23:54;8.67;;;7.67;;
10651;SDS011;5374;42.742;23.266;2024-02-21T01:26:41;11.17;;;7.90;;
10651;SDS011;5374;42.742;23.266;2024-02-21T01:29:28;8.23;;;6.50;;
10651;SDS011;5374;42.742;23.266;2024-02-21T01:32:15;7.70;;;6.90;;
10651;SDS011;5374;42.742;23.266;2024-02-21T01:35:03;9.27;;;7.40;;
10651;SDS011;5374;42.742;23.266;2024-02-21T01:37:51;9.60;;;7.63;;
10651;SDS011;5374;42.742;23.266;2024-02-21T01:40:39;7.87;;;6.97;;
10651;SDS011;5374;42.742;23.266;2024-02-21T01:43:26;7.60;;;6.77;;
10651;SDS011;5374;42.742;23.266;2024-02-21T01:46:13;8.83;;;7.77;;
10651;SDS011;5374;42.742;23.266;2024-02-21T01:49:01;8.00;;;7.17;;
10651;SDS011;5374;42.742;23.266;2024-02-21T01:51:49;8.80;;;7.30;;
10651;SDS011;5374;42.742;23.266;2024-02-21T01:54:37;7.73;;;6.73;;
10651;SDS011;5374;42.742;23.266;2024-02-21T01:57:26;7.83;;;6.43;;
10651;SDS011;5374;42.742;23.266;2024-02-21T02:00:14;10.97;;;7.30;;
10651;SDS011;5374;42.742;23.266;2024-02-21T02:03:02;7.97;;;7.17;;
10651;SDS011;5374;42.742;23.266;2024-02-21T02:05:52;7.40;;;6.23;;
10651;SDS011;5374;42.742;23.266;2024-02-21T02:08:39;6.87;;;6.10;;
10651;SDS011;5374;42.742;23.266;2024-02-21T02:11:26;7.00;;;6.30;;
10651;SDS011;5374;42.742;23.266;2024-02-21T02:14:15;7.33;;;6.50;;
10651;SDS011;5374;42.742;23.266;2024-02-21T02:17:02;7.27;;;6.13;;
10651;SDS011;5374;42.742;23.266;2024-02-21T02:19:49;8.30;;;6.90;;
10651;SDS011;5374;42.742;23.266;2024-02-21T02:22:36;8.70;;;6.77;;
10651;SDS011;5374;42.742;23.266;2024-02-21T02:25:27;8.93;;;7.10;;
10651;SDS011;5374;42.742;23.266;2024-02-21T02:28:14;7.33;;;6.60;;
10651;SDS011;5374;42.742;23.266;2024-02-21T02:31:01;8.40;;;7.40;;
10651;SDS011;5374;42.742;23.266;2024-02-21T02:33:49;9.10;;;7.30;;
10651;SDS011;5374;42.742;23.266;2024-02-21T02:36:36;12.50;;;9.40;;
10651;SDS011;5374;42.742;23.266;2024-02-21T02:39:23;15.57;;;13.10;;
10651;SDS011;5374;42.742;23.266;2024-02-21T02:42:11;20.13;;;15.70;;
10651;SDS011;5374;42.742;23.266;2024-02-21T02:44:58;11.47;;;9.30;;
10651;SDS011;5374;42.742;23.266;2024-02-21T02:47:45;10.23;;;8.83;;
10651;SDS011;5374;42.742;23.266;2024-02-21T02:50:33;9.40;;;8.40;;
10651;SDS011;5374;42.742;23.266;2024-02-21T02:53:20;9.73;;;8.53;;
10651;SDS011;5374;42.742;23.266;2024-02-21T02:56:07;11.50;;;8.70;;
10651;SDS011;5374;42.742;23.266;2024-02-21T02:59:02;10.03;;;8.43;;
10651;SDS011;5374;42.742;23.266;2024-02-21T03:01:49;10.47;;;8.50;;
10651;SDS011;5374;42.742;23.266;2024-02-21T03:04:39;8.93;;;7.70;;
10651;SDS011;5374;42.742;23.266;2024-02-21T03:07:26;9.93;;;8.20;;
10651;SDS011;5374;42.742;23.266;2024-02-21T03:10:13;9.07;;;7.93;;
10651;SDS011;5374;42.742;23.266;2024-02-21T03:13:01;11.00;;;9.17;;
10651;SDS011;5374;42.742;23.266;2024-02-21T03:15:50;11.83;;;8.43;;
10651;SDS011;5374;42.742;23.266;2024-02-21T03:18:38;11.57;;;9.13;;
10651;SDS011;5374;42.742;23.266;2024-02-21T03:21:25;11.50;;;8.87;;
10651;SDS011;5374;42.742;23.266;2024-02-21T03:24:12;10.57;;;8.20;;
10651;SDS011;5374;42.742;23.266;2024-02-21T03:26:59;11.33;;;8.90;;
10651;SDS011;5374;42.742;23.266;2024-02-21T03:29:46;9.83;;;8.47;;
10651;SDS011;5374;42.742;23.266;2024-02-21T03:32:35;11.30;;;9.83;;
10651;SDS011;5374;42.742;23.266;2024-02-21T03:35:23;11.43;;;9.93;;
10651;SDS011;5374;42.742;23.266;2024-02-21T03:38:11;10.47;;;9.20;;
10651;SDS011;5374;42.742;23.266;2024-02-21T03:40:59;10.33;;;9.03;;
10651;SDS011;5374;42.742;23.266;2024-02-21T03:43:46;10.87;;;9.47;;
10651;SDS011;5374;42.742;23.266;2024-02-21T03:46:33;10.93;;;8.80;;
10651;SDS011;5374;42.742;23.266;2024-02-21T03:49:22;10.00;;;8.70;;
10651;SDS011;5374;42.742;23.266;2024-02-21T03:52:09;9.90;;;8.90;;
10651;SDS011;5374;42.742;23.266;2024-02-21T03:54:56;10.47;;;8.63;;
10651;SDS011;5374;42.742;23.266;2024-02-21T03:57:44;9.70;;;8.77;;
10651;SDS011;5374;42.742;23.266;2024-02-21T04:00:31;9.63;;;8.63;;
10651;SDS011;5374;42.742;23.266;2024-02-21T04:03:18;10.93;;;9.20;;
10651;SDS011;5374;42.742;23.266;2024-02-21T04:06:07;10.20;;;9.00;;
10651;SDS011;5374;42.742;23.266;2024-02-21T04:08:54;10.63;;;8.57;;
10651;SDS011;5374;42.742;23.266;2024-02-21T04:11:41;10.87;;;9.67;;
10651;SDS011;5374;42.742;23.266;2024-02-21T04:14:28;10.27;;;8.77;;
10651;SDS011;5374;42.742;23.266;2024-02-21T04:17:16;10.67;;;9.20;;
10651;SDS011;5374;42.742;23.266;2024-02-21T04:20:04;9.77;;;8.77;;
10651;SDS011;5374;42.742;23.266;2024-02-21T04:22:54;12.43;;;10.03;;
10651;SDS011;5374;42.742;23.266;2024-02-21T04:25:42;10.73;;;9.27;;
10651;SDS011;5374;42.742;23.266;2024-02-21T04:28:30;11.53;;;9.43;;
10651;SDS011;5374;42.742;23.266;2024-02-21T04:31:17;10.30;;;8.93;;
10651;SDS011;5374;42.742;23.266;2024-02-21T04:34:05;13.37;;;10.20;;
10651;SDS011;5374;42.742;23.266;2024-02-21T04:36:53;13.27;;;10.80;;
10651;SDS011;5374;42.742;23.266;2024-02-21T04:39:41;13.23;;;10.70;;
10651;SDS011;5374;42.742;23.266;2024-02-21T04:42:28;13.27;;;10.50;;
10651;SDS011;5374;42.742;23.266;2024-02-21T04:45:16;11.63;;;9.93;;
10651;SDS011;5374;42.742;23.266;2024-02-21T04:48:03;13.83;;;11.03;;
10651;SDS011;5374;42.742;23.266;2024-02-21T04:50:51;12.43;;;11.13;;
10651;SDS011;5374;42.742;23.266;2024-02-21T04:53:38;23.73;;;16.70;;
10651;SDS011;5374;42.742;23.266;2024-02-21T04:56:26;28.13;;;18.07;;
10651;SDS011;5374;42.742;23.266;2024-02-21T04:59:13;23.07;;;16.13;;
10651;SDS011;5374;42.742;23.266;2024-02-21T05:02:00;14.63;;;12.63;;
10651;SDS011;5374;42.742;23.266;2024-02-21T05:04:47;15.23;;;12.90;;
10651;SDS011;5374;42.742;23.266;2024-02-21T05:07:35;16.33;;;13.50;;
10651;SDS011;5374;42.742;23.266;2024-02-21T05:10:22;16.40;;;13.23;;
10651;SDS011;5374;42.742;23.266;2024-02-21T05:13:11;47.87;;;29.00;;
10651;SDS011;5374;42.742;23.266;2024-02-21T05:15:58;38.47;;;25.50;;
10651;SDS011;5374;42.742;23.266;2024-02-21T05:18:46;32.37;;;22.17;;
10651;SDS011;5374;42.742;23.266;2024-02-21T05:21:34;21.13;;;15.87;;
10651;SDS011;5374;42.742;23.266;2024-02-21T05:24:21;16.60;;;13.20;;
10651;SDS011;5374;42.742;23.266;2024-02-21T05:27:08;17.40;;;13.30;;
10651;SDS011;5374;42.742;23.266;2024-02-21T05:29:57;15.97;;;13.17;;
10651;SDS011;5374;42.742;23.266;2024-02-21T05:32:44;19.57;;;14.27;;
10651;SDS011;5374;42.742;23.266;2024-02-21T05:35:34;16.97;;;14.17;;
10651;SDS011;5374;42.742;23.266;2024-02-21T05:38:33;20.10;;;14.43;;
10651;SDS011;5374;42.742;23.266;2024-02-21T05:41:20;17.57;;;14.27;;
10651;SDS011;5374;42.742;23.266;2024-02-21T05:44:07;18.20;;;15.13;;
10651;SDS011;5374;42.742;23.266;2024-02-21T05:46:56;20.77;;;14.33;;
10651;SDS011;5374;42.742;23.266;2024-02-21T05:49:43;22.23;;;15.30;;
10651;SDS011;5374;42.742;23.266;2024-02-21T05:52:30;27.17;;;20.70;;
10651;SDS011;5374;42.742;23.266;2024-02-21T05:55:17;90.40;;;59.63;;
10651;SDS011;5374;42.742;23.266;2024-02-21T05:58:05;81.23;;;51.27;;
10651;SDS011;5374;42.742;23.266;2024-02-21T06:00:52;47.33;;;32.50;;
10651;SDS011;5374;42.742;23.266;2024-02-21T06:03:41;25.50;;;18.53;;
10651;SDS011;5374;42.742;23.266;2024-02-21T06:06:28;25.90;;;18.47;;
10651;SDS011;5374;42.742;23.266;2024-02-21T06:09:15;31.63;;;22.20;;
10651;SDS011;5374;42.742;23.266;2024-02-21T06:12:03;34.97;;;24.57;;
10651;SDS011;5374;42.742;23.266;2024-02-21T06:14:50;34.47;;;25.40;;
10651;SDS011;5374;42.742;23.266;2024-02-21T06:17:37;29.60;;;20.97;;
10651;SDS011;5374;42.742;23.266;2024-02-21T06:20:25;23.30;;;16.47;;
10651;SDS011;5374;42.742;23.266;2024-02-21T06:23:13;22.00;;;16.43;;
10651;SDS011;5374;42.742;23.266;2024-02-21T06:26:03;16.60;;;14.47;;
10651;SDS011;5374;42.742;23.266;2024-02-21T06:28:50;15.17;;;12.80;;
10651;SDS011;5374;42.742;23.266;2024-02-21T06:31:37;25.93;;;23.10;;
10651;SDS011;5374;42.742;23.266;2024-02-21T06:34:24;15.33;;;13.30;;
10651;SDS011;5374;42.742;23.266;2024-02-21T06:37:13;15.87;;;14.00;;
10651;SDS011;5374;42.742;23.266;2024-02-21T06:40:00;22.23;;;18.53;;
10651;SDS011;5374;42.742;23.266;2024-02-21T06:42:47;18.07;;;16.37;;
10651;SDS011;5374;42.742;23.266;2024-02-21T06:45:34;13.20;;;11.90;;
10651;SDS011;5374;42.742;23.266;2024-02-21T06:48:21;11.87;;;10.73;;
10651;SDS011;5374;42.742;23.266;2024-02-21T06:51:08;12.57;;;11.27;;
10651;SDS011;5374;42.742;23.266;2024-02-21T06:53:57;21.60;;;19.57;;
10651;SDS011;5374;42.742;23.266;2024-02-21T06:56:44;15.93;;;14.43;;
10651;SDS011;5374;42.742;23.266;2024-02-21T06:59:32;23.23;;;20.80;;
10651;SDS011;5374;42.742;23.266;2024-02-21T07:02:19;14.73;;;13.33;;
10651;SDS011;5374;42.742;23.266;2024-02-21T07:05:06;13.40;;;12.00;;
10651;SDS011;5374;42.742;23.266;2024-02-21T07:07:54;14.80;;;13.40;;
10651;SDS011;5374;42.742;23.266;2024-02-21T07:10:42;13.77;;;12.37;;
10651;SDS011;5374;42.742;23.266;2024-02-21T07:13:29;15.53;;;12.77;;
10651;SDS011;5374;42.742;23.266;2024-02-21T07:16:16;18.13;;;14.97;;
10651;SDS011;5374;42.742;23.266;2024-02-21T07:19:03;17.43;;;13.77;;
10651;SDS011;5374;42.742;23.266;2024-02-21T07:21:50;14.23;;;12.67;;
10651;SDS011;5374;42.742;23.266;2024-02-21T07:24:37;20.70;;;16.60;;
10651;SDS011;5374;42.742;23.266;2024-02-21T07:27:26;22.23;;;18.03;;
10651;SDS011;5374;42.742;23.266;2024-02-21T07:30:16;17.27;;;15.03;;
10651;SDS011;5374;42.742;23.266;2024-02-21T07:33:03;17.80;;;15.60;;
10651;SDS011;5374;42.742;23.266;2024-02-21T07:35:52;17.03;;;15.07;;
10651;SDS011;5374;42.742;23.266;2024-02-21T07:38:39;19.80;;;16.23;;
10651;SDS011;5374;42.742;23.266;2024-02-21T07:41:27;19.50;;;15.70;;
10651;SDS011;5374;42.742;23.266;2024-02-21T07:44:17;19.27;;;15.97;;
10651;SDS011;5374;42.742;23.266;2024-02-21T07:47:04;21.80;;;18.33;;
10651;SDS011;5374;42.742;23.266;2024-02-21T07:49:52;21.20;;;16.83;;
10651;SDS011;5374;42.742;23.266;2024-02-21T07:52:39;17.50;;;15.20;;
10651;SDS011;5374;42.742;23.266;2024-02-21T07:55:27;17.80;;;15.40;;
10651;SDS011;5374;42.742;23.266;2024-02-21T07:58:14;16.60;;;14.80;;
10651;SDS011;5374;42.742;23.266;2024-02-21T08:01:03;24.43;;;20.57;;
10651;SDS011;5374;42.742;23.266;2024-02-21T08:03:50;25.97;;;21.90;;
10651;SDS011;5374;42.742;23.266;2024-02-21T08:06:37;22.17;;;17.93;;
10651;SDS011;5374;42.742;23.266;2024-02-21T08:09:24;18.47;;;15.63;;
10651;SDS011;5374;42.742;23.266;2024-02-21T08:12:11;14.87;;;13.37;;
10651;SDS011;5374;42.742;23.266;2024-02-21T08:14:58;16.00;;;13.83;;
10651;SDS011;5374;42.742;23.266;2024-02-21T08:17:47;17.53;;;15.23;;
10651;SDS011;5374;42.742;23.266;2024-02-21T08:20:35;17.73;;;15.10;;
10651;SDS011;5374;42.742;23.266;2024-02-21T08:23:23;17.07;;;15.33;;
10651;SDS011;5374;42.742;23.266;2024-02-21T08:26:10;16.90;;;15.00;;
10651;SDS011;5374;42.742;23.266;2024-02-21T08:28:57;16.03;;;14.33;;
10651;SDS011;5374;42.742;23.266;2024-02-21T08:31:45;18.73;;;16.00;;
10651;SDS011;5374;42.742;23.266;2024-02-21T08:34:34;17.27;;;15.17;;
10651;SDS011;5374;42.742;23.266;2024-02-21T08:37:21;17.50;;;14.80;;
10651;SDS011;5374;42.742;23.266;2024-02-21T08:40:08;16.77;;;14.97;;
10651;SDS011;5374;42.742;23.266;2024-02-21T08:42:56;15.70;;;14.07;;
10651;SDS011;5374;42.742;23.266;2024-02-21T08:45:43;16.73;;;14.23;;
10651;SDS011;5374;42.742;23.266;2024-02-21T08:48:30;16.23;;;14.57;;
10651;SDS011;5374;42.742;23.266;2024-02-21T08:51:19;15.73;;;14.13;;
10651;SDS011;5374;42.742;23.266;2024-02-21T08:54:07;16.07;;;14.37;;
10651;SDS011;5374;42.742;23.266;2024-02-21T08:56:54;19.97;;;15.27;;
10651;SDS011;5374;42.742;23.266;2024-02-21T08:59:42;17.53;;;15.07;;
10651;SDS011;5374;42.742;23.266;2024-02-21T09:02:29;18.80;;;16.53;;
10651;SDS011;5374;42.742;23.266;2024-02-21T09:05:16;17.47;;;15.63;;
10651;SDS011;5374;42.742;23.266;2024-02-21T09:08:05;19.67;;;16.40;;
10651;SDS011;5374;42.742;23.266;2024-02-21T09:10:53;16.27;;;14.57;;
10651;SDS011;5374;42.742;23.266;2024-02-21T09:13:40;15.00;;;13.23;;
10651;SDS011;5374;42.742;23.266;2024-02-21T09:16:27;15.37;;;13.73;;
10651;SDS011;5374;42.742;23.266;2024-02-21T09:19:14;16.77;;;14.90;;
10651;SDS011;5374;42.742;23.266;2024-02-21T09:22:02;18.67;;;16.47;;
10651;SDS011;5374;42.742;23.266;2024-02-21T09:24:51;18.43;;;13.53;;
10651;SDS011;5374;42.742;23.266;2024-02-21T09:27:39;14.70;;;13.27;;
10651;SDS011;5374;42.742;23.266;2024-02-21T09:30:26;14.77;;;13.30;;
10651;SDS011;5374;42.742;23.266;2024-02-21T09:33:13;15.07;;;13.60;;
10651;SDS011;5374;42.742;23.266;2024-02-21T09:36:00;15.07;;;13.40;;
10651;SDS011;5374;42.742;23.266;2024-02-21T09:38:47;15.30;;;13.70;;
10651;SDS011;5374;42.742;23.266;2024-02-21T09:41:36;15.07;;;12.63;;
10651;SDS011;5374;42.742;23.266;2024-02-21T09:44:30;12.90;;;11.70;;
10651;SDS011;5374;42.742;23.266;2024-02-21T09:47:24;13.97;;;12.53;;
10651;SDS011;5374;42.742;23.266;2024-02-21T09:50:20;14.47;;;12.97;;
10651;SDS011;5374;42.742;23.266;2024-02-21T09:53:09;12.80;;;11.43;;
10651;SDS011;5374;42.742;23.266;2024-02-21T09:55:59;12.80;;;11.50;;
10651;SDS011;5374;42.742;23.266;2024-02-21T09:58:49;12.20;;;11.00;;
10651;SDS011;5374;42.742;23.266;2024-02-21T10:01:36;12.60;;;11.30;;
10651;SDS011;5374;42.742;23.266;2024-02-21T10:04:23;11.70;;;10.60;;
10651;SDS011;5374;42.742;23.266;2024-02-21T10:07:10;15.60;;;12.33;;
10651;SDS011;5374;42.742;23.266;2024-02-21T10:10:00;12.00;;;10.83;;
10651;SDS011;5374;42.742;23.266;2024-02-21T10:12:48;13.47;;;12.07;;
10651;SDS011;5374;42.742;23.266;2024-02-21T10:15:37;12.50;;;11.20;;
10651;SDS011;5374;42.742;23.266;2024-02-21T10:18:24;10.27;;;9.13;;
10651;SDS011;5374;42.742;23.266;2024-02-21T10:21:12;9.63;;;8.20;;
10651;SDS011;5374;42.742;23.266;2024-02-21T10:23:59;9.93;;;9.03;;
10651;SDS011;5374;42.742;23.266;2024-02-21T10:26:46;9.00;;;8.10;;
10651;SDS011;5374;42.742;23.266;2024-02-21T10:29:33;7.60;;;6.90;;
10651;SDS011;5374;42.742;23.266;2024-02-21T10:32:22;10.37;;;7.90;;
10651;SDS011;5374;42.742;23.266;2024-02-21T10:35:11;9.07;;;7.67;;
10651;SDS011;5374;42.742;23.266;2024-02-21T10:37:59;7.67;;;6.97;;
10651;SDS011;5374;42.742;23.266;2024-02-21T10:40:46;8.43;;;7.40;;
10651;SDS011;5374;42.742;23.266;2024-02-21T10:43:38;9.17;;;6.90;;
10651;SDS011;5374;42.742;23.266;2024-02-21T10:46:26;7.23;;;6.53;;
10651;SDS011;5374;42.742;23.266;2024-02-21T10:49:19;7.47;;;6.77;;
10651;SDS011;5374;42.742;23.266;2024-02-21T10:52:13;6.87;;;5.93;;
10651;SDS011;5374;42.742;23.266;2024-02-21T10:55:03;6.10;;;5.50;;
10651;SDS011;5374;42.742;23.266;2024-02-21T10:57:51;6.50;;;5.80;;
10651;SDS011;5374;42.742;23.266;2024-02-21T11:00:38;5.60;;;5.10;;
10651;SDS011;5374;42.742;23.266;2024-02-21T11:03:28;5.33;;;4.83;;
10651;SDS011;5374;42.742;23.266;2024-02-21T11:06:17;5.60;;;5.07;;
10651;SDS011;5374;42.742;23.266;2024-02-21T11:09:05;6.73;;;6.03;;
10651;SDS011;5374;42.742;23.266;2024-02-21T11:11:53;8.40;;;6.00;;
10651;SDS011;5374;42.742;23.266;2024-02-21T11:14:44;6.73;;;6.03;;
10651;SDS011;5374;42.742;23.266;2024-02-21T11:17:31;6.13;;;5.53;;
10651;SDS011;5374;42.742;23.266;2024-02-21T11:20:18;8.63;;;6.07;;
10651;SDS011;5374;42.742;23.266;2024-02-21T11:23:08;7.57;;;6.27;;
10651;SDS011;5374;42.742;23.266;2024-02-21T11:26:03;6.57;;;5.90;;
10651;SDS011;5374;42.742;23.266;2024-02-21T11:28:58;6.53;;;5.37;;
10651;SDS011;5374;42.742;23.266;2024-02-21T11:31:46;6.90;;;5.60;;
10651;SDS011;5374;42.742;23.266;2024-02-21T11:34:33;11.67;;;9.23;;
10651;SDS011;5374;42.742;23.266;2024-02-21T11:37:20;12.83;;;10.43;;
10651;SDS011;5374;42.742;23.266;2024-02-21T11:40:12;9.83;;;7.30;;
10651;SDS011;5374;42.742;23.266;2024-02-21T11:42:59;9.10;;;7.70;;
10651;SDS011;5374;42.742;23.266;2024-02-21T11:45:47;7.87;;;6.90;;
10651;SDS011;5374;42.742;23.266;2024-02-21T11:48:34;7.63;;;6.70;;
10651;SDS011;5374;42.742;23.266;2024-02-21T11:51:22;7.93;;;6.30;;
10651;SDS011;5374;42.742;23.266;2024-02-21T11:54:12;6.53;;;5.90;;
10651;SDS011;5374;42.742;23.266;2024-02-21T11:57:03;8.40;;;6.40;;
10651;SDS011;5374;42.742;23.266;2024-02-21T11:59:51;7.23;;;6.53;;
10651;SDS011;5374;42.742;23.266;2024-02-21T12:02:40;8.63;;;7.10;;
10651;SDS011;5374;42.742;23.266;2024-02-21T12:05:27;8.37;;;7.30;;
10651;SDS011;5374;42.742;23.266;2024-02-21T12:08:15;6.77;;;6.13;;
10651;SDS011;5374;42.742;23.266;2024-02-21T12:11:03;8.53;;;6.30;;
10651;SDS011;5374;42.742;23.266;2024-02-21T12:16:56;7.87;;;6.63;;
10651;SDS011;5374;42.742;23.266;2024-02-21T12:19:44;9.37;;;6.47;;
10651;SDS011;5374;42.742;23.266;2024-02-21T12:22:31;9.33;;;6.00;;
10651;SDS011;5374;42.742;23.266;2024-02-21T12:25:18;7.23;;;6.13;;
10651;SDS011;5374;42.742;23.266;2024-02-21T12:28:08;8.50;;;7.43;;
10651;SDS011;5374;42.742;23.266;2024-02-21T12:30:56;10.47;;;8.30;;
10651;SDS011;5374;42.742;23.266;2024-02-21T12:33:43;11.13;;;7.97;;
10651;SDS011;5374;42.742;23.266;2024-02-21T12:36:30;12.87;;;8.17;;
10651;SDS011;5374;42.742;23.266;2024-02-21T12:39:18;9.13;;;7.43;;
10651;SDS011;5374;42.742;23.266;2024-02-21T12:42:05;9.67;;;8.57;;
10651;SDS011;5374;42.742;23.266;2024-02-21T12:44:52;8.80;;;7.90;;
10651;SDS011;5374;42.742;23.266;2024-02-21T12:47:41;10.77;;;8.93;;
10651;SDS011;5374;42.742;23.266;2024-02-21T12:50:28;12.07;;;8.63;;
10651;SDS011;5374;42.742;23.266;2024-02-21T12:53:16;10.97;;;8.30;;
10651;SDS011;5374;42.742;23.266;2024-02-21T12:56:04;12.03;;;9.37;;
10651;SDS011;5374;42.742;23.266;2024-02-21T12:58:53;12.77;;;9.87;;
10651;SDS011;5374;42.742;23.266;2024-02-21T13:01:40;10.20;;;8.77;;
10651;SDS011;5374;42.742;23.266;2024-02-21T13:04:29;16.03;;;10.03;;
10651;SDS011;5374;42.742;23.266;2024-02-21T13:07:16;12.97;;;10.87;;
10651;SDS011;5374;42.742;23.266;2024-02-21T13:10:03;9.37;;;8.27;;
10651;SDS011;5374;42.742;23.266;2024-02-21T13:12:51;11.47;;;7.87;;
10651;SDS011;5374;42.742;23.266;2024-02-21T13:15:38;12.80;;;8.67;;
10651;SDS011;5374;42.742;23.266;2024-02-21T13:18:28;12.83;;;9.10;;
10651;SDS011;5374;42.742;23.266;2024-02-21T13:21:17;10.23;;;6.50;;
10651;SDS011;5374;42.742;23.266;2024-02-21T13:24:04;9.40;;;7.40;;
10651;SDS011;5374;42.742;23.266;2024-02-21T13:26:51;9.57;;;7.73;;
10651;SDS011;5374;42.742;23.266;2024-02-21T13:29:38;9.37;;;7.40;;
10651;SDS011;5374;42.742;23.266;2024-02-21T13:32:25;9.07;;;7.23;;
10651;SDS011;5374;42.742;23.266;2024-02-21T13:35:13;10.70;;;7.73;;
10651;SDS011;5374;42.742;23.266;2024-02-21T13:38:01;8.97;;;7.43;;
10651;SDS011;5374;42.742;23.266;2024-02-21T13:40:49;11.13;;;7.77;;
10651;SDS011;5374;42.742;23.266;2024-02-21T13:43:36;10.03;;;7.57;;
10651;SDS011;5374;42.742;23.266;2024-02-21T13:46:23;8.17;;;7.30;;
10651;SDS011;5374;42.742;23.266;2024-02-21T13:49:11;11.87;;;8.80;;
10651;SDS011;5374;42.742;23.266;2024-02-21T13:51:59;14.83;;;10.57;;
10651;SDS011;5374;42.742;23.266;2024-02-21T13:54:47;13.63;;;10.07;;
10651;SDS011;5374;42.742;23.266;2024-02-21T13:57:35;14.93;;;11.17;;
10651;SDS011;5374;42.742;23.266;2024-02-21T14:00:22;11.73;;;8.80;;
10651;SDS011;5374;42.742;23.266;2024-02-21T14:03:09;8.13;;;7.33;;
10651;SDS011;5374;42.742;23.266;2024-02-21T14:05:56;9.43;;;7.80;;
10651;SDS011;5374;42.742;23.266;2024-02-21T14:08:44;24.30;;;18.07;;
10651;SDS011;5374;42.742;23.266;2024-02-21T14:11:32;9.93;;;8.93;;
10651;SDS011;5374;42.742;23.266;2024-02-21T14:14:19;10.50;;;8.30;;
10651;SDS011;5374;42.742;23.266;2024-02-21T14:17:06;9.53;;;8.10;;
10651;SDS011;5374;42.742;23.266;2024-02-21T14:19:53;10.60;;;8.47;;
10651;SDS011;5374;42.742;23.266;2024-02-21T14:22:40;10.43;;;8.23;;
10651;SDS011;5374;42.742;23.266;2024-02-21T14:25:28;8.37;;;7.27;;
10651;SDS011;5374;42.742;23.266;2024-02-21T14:28:16;11.00;;;7.97;;
10651;SDS011;5374;42.742;23.266;2024-02-21T14:31:04;9.27;;;7.07;;
10651;SDS011;5374;42.742;23.266;2024-02-21T14:33:54;8.90;;;7.00;;
10651;SDS011;5374;42.742;23.266;2024-02-21T14:36:41;8.03;;;6.70;;
10651;SDS011;5374;42.742;23.266;2024-02-21T14:39:28;9.93;;;8.00;;
10651;SDS011;5374;42.742;23.266;2024-02-21T14:42:15;13.33;;;6.97;;
10651;SDS011;5374;42.742;23.266;2024-02-21T14:45:05;10.70;;;7.53;;
10651;SDS011;5374;42.742;23.266;2024-02-21T14:47:52;10.73;;;7.83;;
10651;SDS011;5374;42.742;23.266;2024-02-21T14:50:41;16.60;;;10.70;;
10651;SDS011;5374;42.742;23.266;2024-02-21T14:53:28;16.00;;;9.77;;
10651;SDS011;5374;42.742;23.266;2024-02-21T14:56:16;11.17;;;9.60;;
10651;SDS011;5374;42.742;23.266;2024-02-21T14:59:03;15.13;;;12.87;;
10651;SDS011;5374;42.742;23.266;2024-02-21T15:01:52;16.67;;;12.73;;
10651;SDS011;5374;42.742;23.266;2024-02-21T15:04:39;12.50;;;11.20;;
10651;SDS011;5374;42.742;23.266;2024-02-21T15:07:26;14.03;;;11.97;;
10651;SDS011;5374;42.742;23.266;2024-02-21T15:10:13;17.73;;;11.07;;
10651;SDS011;5374;42.742;23.266;2024-02-21T15:13:00;15.70;;;13.40;;
10651;SDS011;5374;42.742;23.266;2024-02-21T15:15:48;17.67;;;12.77;;
10651;SDS011;5374;42.742;23.266;2024-02-21T15:18:38;22.37;;;16.90;;
10651;SDS011;5374;42.742;23.266;2024-02-21T15:21:25;16.50;;;12.13;;
10651;SDS011;5374;42.742;23.266;2024-02-21T15:24:13;14.77;;;12.17;;
10651;SDS011;5374;42.742;23.266;2024-02-21T15:27:00;13.27;;;10.07;;
10651;SDS011;5374;42.742;23.266;2024-02-21T15:29:47;13.47;;;10.77;;
10651;SDS011;5374;42.742;23.266;2024-02-21T15:32:34;13.90;;;10.80;;
10651;SDS011;5374;42.742;23.266;2024-02-21T15:35:23;12.20;;;9.93;;
10651;SDS011;5374;42.742;23.266;2024-02-21T15:38:10;14.07;;;10.00;;
10651;SDS011;5374;42.742;23.266;2024-02-21T15:40:59;15.07;;;11.10;;
10651;SDS011;5374;42.742;23.266;2024-02-21T15:43:46;26.17;;;18.80;;
10651;SDS011;5374;42.742;23.266;2024-02-21T15:46:33;27.63;;;21.07;;
10651;SDS011;5374;42.742;23.266;2024-02-21T15:49:22;19.70;;;15.03;;
10651;SDS011;5374;42.742;23.266;2024-02-21T15:52:11;20.10;;;12.93;;
10651;SDS011;5374;42.742;23.266;2024-02-21T15:54:59;15.37;;;10.43;;
10651;SDS011;5374;42.742;23.266;2024-02-21T15:57:46;13.30;;;10.27;;
10651;SDS011;5374;42.742;23.266;2024-02-21T16:00:34;14.77;;;11.30;;
10651;SDS011;5374;42.742;23.266;2024-02-21T16:03:22;17.67;;;11.97;;
10651;SDS011;5374;42.742;23.266;2024-02-21T16:06:09;18.97;;;14.63;;
10651;SDS011;5374;42.742;23.266;2024-02-21T16:08:58;38.23;;;21.60;;
10651;SDS011;5374;42.742;23.266;2024-02-21T16:11:45;87.00;;;39.50;;
10651;SDS011;5374;42.742;23.266;2024-02-21T16:14:33;119.40;;;49.60;;
10651;SDS011;5374;42.742;23.266;2024-02-21T16:17:23;127.57;;;54.03;;
10651;SDS011;5374;42.742;23.266;2024-02-21T16:20:10;150.13;;;58.83;;
10651;SDS011;5374;42.742;23.266;2024-02-21T16:23:00;116.93;;;44.63;;
10651;SDS011;5374;42.742;23.266;2024-02-21T16:25:50;124.80;;;50.10;;
10651;SDS011;5374;42.742;23.266;2024-02-21T16:28:37;169.27;;;68.27;;
10651;SDS011;5374;42.742;23.266;2024-02-21T16:31:24;172.80;;;70.20;;
10651;SDS011;5374;42.742;23.266;2024-02-21T16:34:12;126.50;;;52.33;;
10651;SDS011;5374;42.742;23.266;2024-02-21T16:36:59;91.23;;;43.57;;